sensor_id;sensor_type;location;lat;lon;timestamp;pressure;altitude;pressure_sealevel;temperature;humidity
11888;BME280;6003;42.756;23.130;2022-10-16T00:01:15;154245.56;;;7.13;99.20
11888;BME280;6003;42.756;23.130;2022-10-16T00:03:43;154232.44;;;7.08;99.44
11888;BME280;6003;42.756;23.130;2022-10-16T00:06:12;154229.75;;;7.07;99.31
11888;BME280;6003;42.756;23.130;2022-10-16T00:08:39;154242.94;;;7.12;100.00
11888;BME280;6003;42.756;23.130;2022-10-16T00:11:10;154250.84;;;7.15;100.00
11888;BME280;6003;42.756;23.130;2022-10-16T00:13:39;154231.06;;;7.08;100.00
11888;BME280;6003;42.756;23.130;2022-10-16T00:16:06;154219.25;;;7.03;100.00
11888;BME280;6003;42.756;23.130;2022-10-16T00:18:34;154220.53;;;7.04;100.00
11888;BME280;6003;42.756;23.130;2022-10-16T00:21:02;154219.25;;;7.03;100.00
11888;BME280;6003;42.756;23.130;2022-10-16T00:23:30;154207.34;;;6.98;100.00
11888;BME280;6003;42.756;23.130;2022-10-16T00:25:58;154206.03;;;6.98;99.85
11888;BME280;6003;42.756;23.130;2022-10-16T00:28:26;154213.94;;;7.01;100.00
11888;BME280;6003;42.756;23.130;2022-10-16T00:30:53;154211.34;;;7.00;100.00
11888;BME280;6003;42.756;23.130;2022-10-16T00:33:20;154224.53;;;7.05;100.00
11888;BME280;6003;42.756;23.130;2022-10-16T00:35:47;154211.34;;;7.00;100.00
11888;BME280;6003;42.756;23.130;2022-10-16T00:38:15;154213.94;;;7.01;100.00
11888;BME280;6003;42.756;23.130;2022-10-16T00:40:42;154198.13;;;6.95;100.00
11888;BME280;6003;42.756;23.130;2022-10-16T00:43:13;154190.22;;;6.92;99.87
11888;BME280;6003;42.756;23.130;2022-10-16T00:45:42;154179.72;;;6.88;100.00
11888;BME280;6003;42.756;23.130;2022-10-16T00:48:25;154167.84;;;6.83;99.28
11888;BME280;6003;42.756;23.130;2022-10-16T00:50:52;154140.16;;;6.72;98.90
11888;BME280;6003;42.756;23.130;2022-10-16T00:53:19;154129.63;;;6.68;98.15
11888;BME280;6003;42.756;23.130;2022-10-16T00:55:46;154111.16;;;6.61;98.74
11888;BME280;6003;42.756;23.130;2022-10-16T00:58:13;154096.66;;;6.55;97.91
11888;BME280;6003;42.756;23.130;2022-10-16T01:00:41;154113.81;;;6.62;100.00
11888;BME280;6003;42.756;23.130;2022-10-16T01:03:23;154121.72;;;6.65;100.00
11888;BME280;6003;42.756;23.130;2022-10-16T01:05:58;154111.16;;;6.61;100.00
11888;BME280;6003;42.756;23.130;2022-10-16T01:08:30;154074.25;;;6.47;99.92
11888;BME280;6003;42.756;23.130;2022-10-16T01:11:07;154079.53;;;6.49;100.00
11888;BME280;6003;42.756;23.130;2022-10-16T01:13:41;154086.13;;;6.51;100.00
11888;BME280;6003;42.756;23.130;2022-10-16T01:16:13;154082.16;;;6.50;100.00
11888;BME280;6003;42.756;23.130;2022-10-16T01:22:04;154055.84;;;6.40;100.00
11888;BME280;6003;42.756;23.130;2022-10-16T01:24:38;154051.88;;;6.38;100.00
11888;BME280;6003;42.756;23.130;2022-10-16T01:27:09;154042.66;;;6.35;100.00
11888;BME280;6003;42.756;23.130;2022-10-16T01:29:41;154029.47;;;6.29;100.00
11888;BME280;6003;42.756;23.130;2022-10-16T01:32:14;154020.25;;;6.26;100.00
11888;BME280;6003;42.756;23.130;2022-10-16T01:34:47;154053.19;;;6.39;100.00
11888;BME280;6003;42.756;23.130;2022-10-16T01:37:18;154067.66;;;6.44;100.00
11888;BME280;6003;42.756;23.130;2022-10-16T01:39:48;154074.25;;;6.47;100.00
11888;BME280;6003;42.756;23.130;2022-10-16T01:42:20;154075.63;;;6.47;100.00
11888;BME280;6003;42.756;23.130;2022-10-16T01:44:50;154080.84;;;6.49;100.00
11888;BME280;6003;42.756;23.130;2022-10-16T01:47:18;154065.06;;;6.43;100.00
11888;BME280;6003;42.756;23.130;2022-10-16T01:49:49;154069.03;;;6.45;100.00
11888;BME280;6003;42.756;23.130;2022-10-16T01:52:21;154071.66;;;6.46;100.00
11888;BME280;6003;42.756;23.130;2022-10-16T01:54:52;154074.25;;;6.47;100.00
11888;BME280;6003;42.756;23.130;2022-10-16T01:57:24;154071.66;;;6.46;100.00
11888;BME280;6003;42.756;23.130;2022-10-16T01:59:56;154055.84;;;6.40;100.00
11888;BME280;6003;42.756;23.130;2022-10-16T02:02:26;154066.34;;;6.44;100.00
11888;BME280;6003;42.756;23.130;2022-10-16T02:04:58;154066.34;;;6.44;100.00
11888;BME280;6003;42.756;23.130;2022-10-16T02:07:25;154009.75;;;6.22;100.00
11888;BME280;6003;42.756;23.130;2022-10-16T02:09:52;154047.94;;;6.37;100.00
11888;BME280;6003;42.756;23.130;2022-10-16T02:12:24;154074.25;;;6.47;100.00
11888;BME280;6003;42.756;23.130;2022-10-16T02:14:53;154079.53;;;6.49;100.00
11888;BME280;6003;42.756;23.130;2022-10-16T02:17:20;154084.84;;;6.51;100.00
11888;BME280;6003;42.756;23.130;2022-10-16T02:19:49;154088.75;;;6.52;100.00
11888;BME280;6003;42.756;23.130;2022-10-16T02:22:23;154076.94;;;6.48;100.00
11888;BME280;6003;42.756;23.130;2022-10-16T02:24:57;154069.03;;;6.45;100.00
11888;BME280;6003;42.756;23.130;2022-10-16T02:27:30;154065.06;;;6.43;100.00
11888;BME280;6003;42.756;23.130;2022-10-16T02:30:04;154024.25;;;6.27;100.00
11888;BME280;6003;42.756;23.130;2022-10-16T02:32:36;154020.25;;;6.26;100.00
11888;BME280;6003;42.756;23.130;2022-10-16T02:35:04;154034.75;;;6.31;100.00
11888;BME280;6003;42.756;23.130;2022-10-16T02:37:32;154034.75;;;6.31;100.00
11888;BME280;6003;42.756;23.130;2022-10-16T02:40:00;154029.47;;;6.29;100.00
11888;BME280;6003;42.756;23.130;2022-10-16T02:42:33;154034.75;;;6.31;100.00
11888;BME280;6003;42.756;23.130;2022-10-16T02:45:00;154034.75;;;6.31;100.00
11888;BME280;6003;42.756;23.130;2022-10-16T02:47:27;154026.84;;;6.28;100.00
11888;BME280;6003;42.756;23.130;2022-10-16T02:49:53;154028.16;;;6.29;100.00
11888;BME280;6003;42.756;23.130;2022-10-16T02:52:20;154024.25;;;6.27;100.00
11888;BME280;6003;42.756;23.130;2022-10-16T02:54:47;154011.06;;;6.22;100.00
11888;BME280;6003;42.756;23.130;2022-10-16T02:57:14;154008.41;;;6.21;100.00
11888;BME280;6003;42.756;23.130;2022-10-16T02:59:42;153999.19;;;6.18;100.00
11888;BME280;6003;42.756;23.130;2022-10-16T03:02:10;153992.59;;;6.15;100.00
11888;BME280;6003;42.756;23.130;2022-10-16T03:04:36;153993.91;;;6.16;100.00
11888;BME280;6003;42.756;23.130;2022-10-16T03:07:04;153996.56;;;6.17;100.00
11888;BME280;6003;42.756;23.130;2022-10-16T03:09:31;154000.50;;;6.18;100.00
11888;BME280;6003;42.756;23.130;2022-10-16T03:11:57;153992.59;;;6.15;100.00
11888;BME280;6003;42.756;23.130;2022-10-16T03:14:24;153982.06;;;6.11;100.00
11888;BME280;6003;42.756;23.130;2022-10-16T03:16:52;153982.06;;;6.11;100.00
11888;BME280;6003;42.756;23.130;2022-10-16T03:19:19;153967.59;;;6.05;100.00
11888;BME280;6003;42.756;23.130;2022-10-16T03:21:46;153955.72;;;6.01;100.00
11888;BME280;6003;42.756;23.130;2022-10-16T03:24:13;153955.72;;;6.01;100.00
11888;BME280;6003;42.756;23.130;2022-10-16T03:26:40;153953.09;;;6.00;100.00
11888;BME280;6003;42.756;23.130;2022-10-16T03:29:07;153942.59;;;5.96;100.00
11888;BME280;6003;42.756;23.130;2022-10-16T03:31:33;153937.31;;;5.94;100.00
11888;BME280;6003;42.756;23.130;2022-10-16T03:34:02;153937.31;;;5.94;100.00
11888;BME280;6003;42.756;23.130;2022-10-16T03:36:28;153933.28;;;5.92;100.00
11888;BME280;6003;42.756;23.130;2022-10-16T03:38:55;153924.06;;;5.88;100.00
11888;BME280;6003;42.756;23.130;2022-10-16T03:41:22;153910.91;;;5.83;100.00
11888;BME280;6003;42.756;23.130;2022-10-16T03:43:49;153897.78;;;5.78;100.00
11888;BME280;6003;42.756;23.130;2022-10-16T03:46:16;153900.38;;;5.79;100.00
11888;BME280;6003;42.756;23.130;2022-10-16T03:48:43;153897.78;;;5.78;100.00
11888;BME280;6003;42.756;23.130;2022-10-16T03:51:11;153881.94;;;5.72;100.00
11888;BME280;6003;42.756;23.130;2022-10-16T03:53:38;153867.44;;;5.66;100.00
11888;BME280;6003;42.756;23.130;2022-10-16T03:56:05;153863.50;;;5.65;100.00
11888;BME280;6003;42.756;23.130;2022-10-16T03:58:32;153863.50;;;5.65;100.00
11888;BME280;6003;42.756;23.130;2022-10-16T04:01:00;153868.81;;;5.67;100.00
11888;BME280;6003;42.756;23.130;2022-10-16T04:03:27;153863.50;;;5.65;100.00
11888;BME280;6003;42.756;23.130;2022-10-16T04:05:54;153854.31;;;5.61;100.00
11888;BME280;6003;42.756;23.130;2022-10-16T04:08:22;153843.75;;;5.57;100.00
11888;BME280;6003;42.756;23.130;2022-10-16T04:10:49;153834.56;;;5.54;100.00
11888;BME280;6003;42.756;23.130;2022-10-16T04:13:16;153834.56;;;5.54;100.00
11888;BME280;6003;42.756;23.130;2022-10-16T04:15:44;153834.56;;;5.54;100.00
11888;BME280;6003;42.756;23.130;2022-10-16T04:18:11;153826.66;;;5.51;100.00
11888;BME280;6003;42.756;23.130;2022-10-16T04:20:38;153839.84;;;5.56;100.00
11888;BME280;6003;42.756;23.130;2022-10-16T04:23:05;153847.72;;;5.59;100.00
11888;BME280;6003;42.756;23.130;2022-10-16T04:25:33;153835.84;;;5.54;100.00
11888;BME280;6003;42.756;23.130;2022-10-16T04:31:04;153834.56;;;5.54;100.00
11888;BME280;6003;42.756;23.130;2022-10-16T04:33:31;153816.09;;;5.47;100.00
11888;BME280;6003;42.756;23.130;2022-10-16T04:35:59;153789.78;;;5.36;100.00
11888;BME280;6003;42.756;23.130;2022-10-16T04:38:26;153779.28;;;5.32;100.00
11888;BME280;6003;42.756;23.130;2022-10-16T04:40:55;153775.31;;;5.31;100.00
11888;BME280;6003;42.756;23.130;2022-10-16T04:43:22;153784.53;;;5.34;100.00
11888;BME280;6003;42.756;23.130;2022-10-16T04:45:48;153750.34;;;5.21;100.00
11888;BME280;6003;42.756;23.130;2022-10-16T04:48:16;153795.06;;;5.38;100.00
11888;BME280;6003;42.756;23.130;2022-10-16T04:50:43;153750.34;;;5.21;100.00
11888;BME280;6003;42.756;23.130;2022-10-16T04:53:10;153824.03;;;5.50;100.00
11888;BME280;6003;42.756;23.130;2022-10-16T04:55:36;153843.75;;;5.57;100.00
11888;BME280;6003;42.756;23.130;2022-10-16T04:58:14;153847.72;;;5.59;100.00
11888;BME280;6003;42.756;23.130;2022-10-16T05:00:41;153860.91;;;5.64;100.00
11888;BME280;6003;42.756;23.130;2022-10-16T05:03:07;153850.34;;;5.60;100.00
11888;BME280;6003;42.756;23.130;2022-10-16T05:05:35;153876.69;;;5.70;100.00
11888;BME280;6003;42.756;23.130;2022-10-16T05:08:02;153871.41;;;5.68;100.00
11888;BME280;6003;42.756;23.130;2022-10-16T05:10:29;153895.09;;;5.77;100.00
11888;BME280;6003;42.756;23.130;2022-10-16T05:12:56;153910.91;;;5.83;100.00
11888;BME280;6003;42.756;23.130;2022-10-16T05:15:24;153905.66;;;5.81;100.00
11888;BME280;6003;42.756;23.130;2022-10-16T05:17:55;153945.19;;;5.97;100.00
11888;BME280;6003;42.756;23.130;2022-10-16T05:20:22;153966.28;;;6.05;100.00
11888;BME280;6003;42.756;23.130;2022-10-16T05:22:49;153991.28;;;6.15;100.00
11888;BME280;6003;42.756;23.130;2022-10-16T05:25:16;154001.84;;;6.19;100.00
11888;BME280;6003;42.756;23.130;2022-10-16T05:27:47;154026.84;;;6.28;100.00
11888;BME280;6003;42.756;23.130;2022-10-16T05:30:14;154083.53;;;6.50;100.00
11888;BME280;6003;42.756;23.130;2022-10-16T05:32:46;154104.56;;;6.59;100.00
11888;BME280;6003;42.756;23.130;2022-10-16T05:35:13;154162.56;;;6.81;100.00
11888;BME280;6003;42.756;23.130;2022-10-16T05:37:40;154202.13;;;6.96;100.00
11888;BME280;6003;42.756;23.130;2022-10-16T05:40:08;154229.75;;;7.07;100.00
11888;BME280;6003;42.756;23.130;2022-10-16T05:42:35;154296.97;;;7.33;100.00
11888;BME280;6003;42.756;23.130;2022-10-16T05:45:03;154343.16;;;7.51;100.00
11888;BME280;6003;42.756;23.130;2022-10-16T05:47:30;154399.84;;;7.73;100.00
11888;BME280;6003;42.756;23.130;2022-10-16T05:49:59;154448.66;;;7.92;100.00
11888;BME280;6003;42.756;23.130;2022-10-16T05:52:26;154461.88;;;7.97;100.00
11888;BME280;6003;42.756;23.130;2022-10-16T05:54:53;154506.72;;;8.14;100.00
11888;BME280;6003;42.756;23.130;2022-10-16T05:57:20;154570.06;;;8.39;100.00
11888;BME280;6003;42.756;23.130;2022-10-16T05:59:47;154604.38;;;8.52;100.00
11888;BME280;6003;42.756;23.130;2022-10-16T06:02:16;154599.09;;;8.50;100.00
11888;BME280;6003;42.756;23.130;2022-10-16T06:04:43;154654.56;;;8.72;100.00
11888;BME280;6003;42.756;23.130;2022-10-16T06:07:11;154699.44;;;8.89;100.00
11888;BME280;6003;42.756;23.130;2022-10-16T06:09:38;154721.88;;;8.98;100.00
11888;BME280;6003;42.756;23.130;2022-10-16T06:12:05;154739.00;;;9.04;99.60
11888;BME280;6003;42.756;23.130;2022-10-16T06:14:32;154760.16;;;9.13;100.00
11888;BME280;6003;42.756;23.130;2022-10-16T06:16:59;154793.13;;;9.25;99.32
11888;BME280;6003;42.756;23.130;2022-10-16T06:19:26;154785.22;;;9.22;97.37
11888;BME280;6003;42.756;23.130;2022-10-16T06:21:52;154799.75;;;9.28;96.55
11888;BME280;6003;42.756;23.130;2022-10-16T06:24:21;154812.94;;;9.33;96.48
11888;BME280;6003;42.756;23.130;2022-10-16T06:26:47;154844.63;;;9.45;96.74
11888;BME280;6003;42.756;23.130;2022-10-16T06:29:14;154795.81;;;9.26;97.82
11888;BME280;6003;42.756;23.130;2022-10-16T06:31:41;154890.84;;;9.63;95.15
11888;BME280;6003;42.756;23.130;2022-10-16T06:34:09;154842.00;;;9.44;94.56
11888;BME280;6003;42.756;23.130;2022-10-16T06:36:37;154931.81;;;9.79;95.10
11888;BME280;6003;42.756;23.130;2022-10-16T06:39:04;154989.97;;;10.02;96.03
11888;BME280;6003;42.756;23.130;2022-10-16T06:41:34;154988.66;;;10.01;92.81
11888;BME280;6003;42.756;23.130;2022-10-16T06:44:01;155028.28;;;10.16;92.80
11888;BME280;6003;42.756;23.130;2022-10-16T06:46:31;155070.63;;;10.33;92.05
11888;BME280;6003;42.756;23.130;2022-10-16T06:48:58;155058.72;;;10.28;90.88
11888;BME280;6003;42.756;23.130;2022-10-16T06:51:25;154959.59;;;9.90;91.14
11888;BME280;6003;42.756;23.130;2022-10-16T06:53:53;155057.41;;;10.28;92.81
11888;BME280;6003;42.756;23.130;2022-10-16T06:56:23;155098.34;;;10.44;91.06
11888;BME280;6003;42.756;23.130;2022-10-16T06:58:52;155111.56;;;10.49;90.32
11888;BME280;6003;42.756;23.130;2022-10-16T07:01:21;155159.13;;;10.67;90.06
11888;BME280;6003;42.756;23.130;2022-10-16T07:03:49;155204.06;;;10.84;89.02
11888;BME280;6003;42.756;23.130;2022-10-16T07:06:19;155246.41;;;11.01;89.60
11888;BME280;6003;42.756;23.130;2022-10-16T07:08:53;155212.06;;;10.88;87.34
11888;BME280;6003;42.756;23.130;2022-10-16T07:11:21;155193.53;;;10.80;87.87
11888;BME280;6003;42.756;23.130;2022-10-16T07:13:49;155151.19;;;10.64;87.53
11888;BME280;6003;42.756;23.130;2022-10-16T07:16:19;155198.81;;;10.82;88.75
11888;BME280;6003;42.756;23.130;2022-10-16T07:18:46;155156.50;;;10.66;87.03
11888;BME280;6003;42.756;23.130;2022-10-16T07:21:16;155201.44;;;10.83;87.34
11888;BME280;6003;42.756;23.130;2022-10-16T07:23:43;155251.72;;;11.03;89.17
11888;BME280;6003;42.756;23.130;2022-10-16T07:26:10;155315.16;;;11.27;89.21
11888;BME280;6003;42.756;23.130;2022-10-16T07:28:46;155421.00;;;11.68;87.37
11888;BME280;6003;42.756;23.130;2022-10-16T07:31:13;155435.56;;;11.74;84.43
11888;BME280;6003;42.756;23.130;2022-10-16T07:33:43;155448.75;;;11.79;84.51
11888;BME280;6003;42.756;23.130;2022-10-16T07:36:10;155487.22;;;11.94;82.25
11888;BME280;6003;42.756;23.130;2022-10-16T07:38:38;155500.41;;;11.99;82.11
11888;BME280;6003;42.756;23.130;2022-10-16T07:41:06;155513.66;;;12.04;81.29
11888;BME280;6003;42.756;23.130;2022-10-16T07:43:34;155496.47;;;11.98;81.96
11888;BME280;6003;42.756;23.130;2022-10-16T07:46:01;155538.78;;;12.14;82.77
11888;BME280;6003;42.756;23.130;2022-10-16T07:48:29;155616.91;;;12.44;82.78
11888;BME280;6003;42.756;23.130;2022-10-16T07:50:58;155542.78;;;12.15;80.90
11888;BME280;6003;42.756;23.130;2022-10-16T07:53:25;155567.91;;;12.25;81.15
11888;BME280;6003;42.756;23.130;2022-10-16T07:55:54;155632.78;;;12.50;83.13
11888;BME280;6003;42.756;23.130;2022-10-16T07:58:23;155680.41;;;12.69;80.81
11888;BME280;6003;42.756;23.130;2022-10-16T08:00:50;155689.72;;;12.72;78.55
11888;BME280;6003;42.756;23.130;2022-10-16T08:03:17;155722.81;;;12.85;80.87
11888;BME280;6003;42.756;23.130;2022-10-16T08:05:43;155651.34;;;12.57;79.08
11888;BME280;6003;42.756;23.130;2022-10-16T08:08:14;155688.41;;;12.72;81.89
11888;BME280;6003;42.756;23.130;2022-10-16T08:10:41;155757.25;;;12.98;81.87
11888;BME280;6003;42.756;23.130;2022-10-16T08:13:08;155802.28;;;13.16;79.99
11888;BME280;6003;42.756;23.130;2022-10-16T08:15:35;155808.91;;;13.18;77.11
11888;BME280;6003;42.756;23.130;2022-10-16T08:18:04;155830.16;;;13.26;78.79
11888;BME280;6003;42.756;23.130;2022-10-16T08:20:32;155897.72;;;13.52;76.87
11888;BME280;6003;42.756;23.130;2022-10-16T08:22:59;155918.88;;;13.61;77.31
11888;BME280;6003;42.756;23.130;2022-10-16T08:25:28;155910.91;;;13.58;76.53
11888;BME280;6003;42.756;23.130;2022-10-16T08:27:55;155937.44;;;13.68;76.27
11888;BME280;6003;42.756;23.130;2022-10-16T08:30:23;155850.00;;;13.34;75.55
11888;BME280;6003;42.756;23.130;2022-10-16T08:32:50;155902.97;;;13.54;76.52
11888;BME280;6003;42.756;23.130;2022-10-16T08:35:17;156011.66;;;13.96;75.86
11888;BME280;6003;42.756;23.130;2022-10-16T08:37:44;156042.13;;;14.08;75.06
11888;BME280;6003;42.756;23.130;2022-10-16T08:40:17;156103.09;;;14.32;73.50
11888;BME280;6003;42.756;23.130;2022-10-16T08:43:01;156101.78;;;14.31;71.18
11888;BME280;6003;42.756;23.130;2022-10-16T08:45:51;156190.66;;;14.65;71.93
11888;BME280;6003;42.756;23.130;2022-10-16T08:48:29;156165.47;;;14.56;71.40
11888;BME280;6003;42.756;23.130;2022-10-16T08:50:57;156188.03;;;14.64;70.90
11888;BME280;6003;42.756;23.130;2022-10-16T08:53:29;156230.41;;;14.81;74.97
11888;BME280;6003;42.756;23.130;2022-10-16T08:55:56;156226.47;;;14.79;64.29
11888;BME280;6003;42.756;23.130;2022-10-16T08:58:28;156173.44;;;14.59;64.88
11888;BME280;6003;42.756;23.130;2022-10-16T09:00:57;156226.47;;;14.79;69.82
11888;BME280;6003;42.756;23.130;2022-10-16T09:03:37;156294.09;;;15.05;66.33
11888;BME280;6003;42.756;23.130;2022-10-16T09:06:18;156300.75;;;15.08;65.45
11888;BME280;6003;42.756;23.130;2022-10-16T09:09:01;156337.88;;;15.22;65.82
11888;BME280;6003;42.756;23.130;2022-10-16T09:11:43;156271.56;;;14.97;64.74
11888;BME280;6003;42.756;23.130;2022-10-16T09:14:29;156231.75;;;14.81;63.47
11888;BME280;6003;42.756;23.130;2022-10-16T09:17:12;156298.06;;;15.07;67.16
11888;BME280;6003;42.756;23.130;2022-10-16T09:19:48;156327.25;;;15.18;65.62
11888;BME280;6003;42.756;23.130;2022-10-16T09:22:21;156345.84;;;15.25;64.21
11888;BME280;6003;42.756;23.130;2022-10-16T09:24:49;156364.38;;;15.32;65.60
11888;BME280;6003;42.756;23.130;2022-10-16T09:27:16;156424.09;;;15.55;65.55
11888;BME280;6003;42.756;23.130;2022-10-16T09:29:45;156459.97;;;15.69;63.28
11888;BME280;6003;42.756;23.130;2022-10-16T09:32:14;156491.81;;;15.82;64.62
11888;BME280;6003;42.756;23.130;2022-10-16T09:34:47;156430.72;;;15.58;61.76
11888;BME280;6003;42.756;23.130;2022-10-16T09:37:17;156440.00;;;15.62;63.01
11888;BME280;6003;42.756;23.130;2022-10-16T09:39:46;156385.63;;;15.41;61.39
11888;BME280;6003;42.756;23.130;2022-10-16T09:42:16;156428.09;;;15.57;62.37
11888;BME280;6003;42.756;23.130;2022-10-16T09:44:49;156470.56;;;15.73;61.22
11888;BME280;6003;42.756;23.130;2022-10-16T09:47:19;156489.16;;;15.81;61.88
11888;BME280;6003;42.756;23.130;2022-10-16T09:49:51;156514.38;;;15.90;64.46
11888;BME280;6003;42.756;23.130;2022-10-16T09:52:19;156550.22;;;16.04;60.68
11888;BME280;6003;42.756;23.130;2022-10-16T09:54:51;156571.47;;;16.12;59.64
11888;BME280;6003;42.756;23.130;2022-10-16T09:57:18;156555.53;;;16.06;57.32
11888;BME280;6003;42.756;23.130;2022-10-16T09:59:47;156616.59;;;16.30;58.20
11888;BME280;6003;42.756;23.130;2022-10-16T10:02:18;156639.16;;;16.38;60.27
11888;BME280;6003;42.756;23.130;2022-10-16T10:04:50;156655.09;;;16.44;56.78
11888;BME280;6003;42.756;23.130;2022-10-16T10:07:24;156672.31;;;16.51;56.20
11888;BME280;6003;42.756;23.130;2022-10-16T10:09:52;156636.53;;;16.37;58.23
11888;BME280;6003;42.756;23.130;2022-10-16T10:12:21;156704.22;;;16.63;58.91
11888;BME280;6003;42.756;23.130;2022-10-16T10:14:50;156672.31;;;16.51;56.79
11888;BME280;6003;42.756;23.130;2022-10-16T10:17:20;156677.66;;;16.53;57.61
11888;BME280;6003;42.756;23.130;2022-10-16T10:19:50;156667.06;;;16.49;55.31
11888;BME280;6003;42.756;23.130;2022-10-16T10:22:25;156656.41;;;16.45;55.95
11888;BME280;6003;42.756;23.130;2022-10-16T10:24:59;156677.66;;;16.53;58.23
11888;BME280;6003;42.756;23.130;2022-10-16T10:27:34;156664.38;;;16.48;56.14
11888;BME280;6003;42.756;23.130;2022-10-16T10:30:09;156714.84;;;16.67;58.60
11888;BME280;6003;42.756;23.130;2022-10-16T10:32:47;156756.06;;;16.83;57.90
11888;BME280;6003;42.756;23.130;2022-10-16T10:35:22;156786.63;;;16.95;55.04
11888;BME280;6003;42.756;23.130;2022-10-16T10:38:04;156760.03;;;16.85;55.01
11888;BME280;6003;42.756;23.130;2022-10-16T10:40:42;156835.75;;;17.14;57.27
11888;BME280;6003;42.756;23.130;2022-10-16T10:43:22;156846.38;;;17.18;54.55
11888;BME280;6003;42.756;23.130;2022-10-16T10:45:56;156817.16;;;17.07;54.70
11888;BME280;6003;42.756;23.130;2022-10-16T10:48:39;156842.38;;;17.17;54.86
11888;BME280;6003;42.756;23.130;2022-10-16T10:51:13;156924.75;;;17.48;52.71
11888;BME280;6003;42.756;23.130;2022-10-16T10:53:48;156946.03;;;17.56;54.17
11888;BME280;6003;42.756;23.130;2022-10-16T10:56:37;156916.78;;;17.45;51.67
11888;BME280;6003;42.756;23.130;2022-10-16T10:59:20;156855.69;;;17.22;52.02
11888;BME280;6003;42.756;23.130;2022-10-16T11:01:56;156853.03;;;17.21;53.67
11888;BME280;6003;42.756;23.130;2022-10-16T11:04:49;156845.06;;;17.18;55.04
11888;BME280;6003;42.756;23.130;2022-10-16T11:07:24;156805.19;;;17.02;52.68
11888;BME280;6003;42.756;23.130;2022-10-16T11:09:55;156826.44;;;17.10;55.66
11888;BME280;6003;42.756;23.130;2022-10-16T11:12:27;156876.94;;;17.30;55.62
11888;BME280;6003;42.756;23.130;2022-10-16T11:15:00;156871.63;;;17.28;50.46
11888;BME280;6003;42.756;23.130;2022-10-16T11:17:31;156874.25;;;17.29;51.17
11888;BME280;6003;42.756;23.130;2022-10-16T11:20:05;156862.31;;;17.24;50.73
11888;BME280;6003;42.756;23.130;2022-10-16T11:22:41;156864.97;;;17.25;51.47
11888;BME280;6003;42.756;23.130;2022-10-16T11:25:13;156880.91;;;17.31;50.75
11888;BME280;6003;42.756;23.130;2022-10-16T11:27:43;156882.22;;;17.32;52.96
11888;BME280;6003;42.756;23.130;2022-10-16T11:30:16;156864.97;;;17.25;49.30
11888;BME280;6003;42.756;23.130;2022-10-16T11:32:56;156839.75;;;17.16;51.42
11888;BME280;6003;42.756;23.130;2022-10-16T11:35:37;156797.22;;;16.99;51.47
11888;BME280;6003;42.756;23.130;2022-10-16T11:38:13;156810.53;;;17.04;51.01
11888;BME280;6003;42.756;23.130;2022-10-16T11:40:43;156854.34;;;17.21;47.90
11888;BME280;6003;42.756;23.130;2022-10-16T11:43:17;156868.97;;;17.27;48.92
11888;BME280;6003;42.756;23.130;2022-10-16T11:45:49;156853.03;;;17.21;48.42
11888;BME280;6003;42.756;23.130;2022-10-16T11:48:24;156874.25;;;17.29;50.27
11888;BME280;6003;42.756;23.130;2022-10-16T11:50:57;156842.38;;;17.17;50.13
11888;BME280;6003;42.756;23.130;2022-10-16T11:53:40;156847.72;;;17.19;47.78
11888;BME280;6003;42.756;23.130;2022-10-16T11:56:12;156823.81;;;17.09;48.88
11888;BME280;6003;42.756;23.130;2022-10-16T11:58:45;156785.31;;;16.95;49.59
11888;BME280;6003;42.756;23.130;2022-10-16T12:01:21;156782.63;;;16.94;47.81
11888;BME280;6003;42.756;23.130;2022-10-16T12:04:01;156845.06;;;17.18;48.49
11888;BME280;6003;42.756;23.130;2022-10-16T12:06:38;156834.41;;;17.13;48.63
11888;BME280;6003;42.756;23.130;2022-10-16T12:09:15;156831.78;;;17.12;50.27
11888;BME280;6003;42.756;23.130;2022-10-16T12:11:46;156827.78;;;17.11;49.90
11888;BME280;6003;42.756;23.130;2022-10-16T12:14:32;156821.13;;;17.08;49.19
11888;BME280;6003;42.756;23.130;2022-10-16T12:17:02;156781.28;;;16.93;48.12
11888;BME280;6003;42.756;23.130;2022-10-16T12:19:31;156847.72;;;17.19;50.12
11888;BME280;6003;42.756;23.130;2022-10-16T12:22:01;156842.38;;;17.17;48.53
11888;BME280;6003;42.756;23.130;2022-10-16T12:24:34;156866.28;;;17.26;50.54
11888;BME280;6003;42.756;23.130;2022-10-16T12:27:03;156810.53;;;17.04;50.38
11888;BME280;6003;42.756;23.130;2022-10-16T12:29:36;156793.25;;;16.98;49.37
11888;BME280;6003;42.756;23.130;2022-10-16T12:32:05;156831.78;;;17.12;48.23
11888;BME280;6003;42.756;23.130;2022-10-16T12:34:45;156823.81;;;17.09;48.79
11888;BME280;6003;42.756;23.130;2022-10-16T12:37:21;156851.66;;;17.20;49.41
11888;BME280;6003;42.756;23.130;2022-10-16T12:39:56;156854.34;;;17.21;48.37
11888;BME280;6003;42.756;23.130;2022-10-16T12:42:37;156841.06;;;17.16;46.14
11888;BME280;6003;42.756;23.130;2022-10-16T12:45:25;156880.91;;;17.31;46.55
11888;BME280;6003;42.756;23.130;2022-10-16T12:47:54;156882.22;;;17.32;46.65
11888;BME280;6003;42.756;23.130;2022-10-16T12:50:25;156855.69;;;17.22;48.61
11888;BME280;6003;42.756;23.130;2022-10-16T12:52:54;156799.88;;;17.00;42.99
11888;BME280;6003;42.756;23.130;2022-10-16T12:55:22;156794.59;;;16.98;44.23
11888;BME280;6003;42.756;23.130;2022-10-16T12:58:00;156854.34;;;17.21;45.32
11888;BME280;6003;42.756;23.130;2022-10-16T13:00:40;156821.13;;;17.08;46.20
11888;BME280;6003;42.756;23.130;2022-10-16T13:03:44;156868.97;;;17.27;46.16
11888;BME280;6003;42.756;23.130;2022-10-16T13:06:23;156892.88;;;17.36;46.58
11888;BME280;6003;42.756;23.130;2022-10-16T13:09:05;156829.09;;;17.11;46.30
11888;BME280;6003;42.756;23.130;2022-10-16T13:11:54;156802.56;;;17.01;47.59
11888;BME280;6003;42.756;23.130;2022-10-16T13:14:50;156807.88;;;17.03;49.36